LGL8712 LIMJ-EDDM
Flight info
| Callsign | LGL8712 |
|---|---|
| Flight time | 0h 59m |
| Altitude | 34000 |
| Route | ITCAP DCT MONEB DCT OSKOR DCT NESTI DCT TAGIP DCT GUNGO DCT IVKAL T102 NINUR T101 BETOS BETOS1B |
| Aircraft | B38M/M-SDE1FGHILORVWXY/HB1 |
Departure
| Time | 2026-05-07 08:52 |
|---|---|
| Airport | Genoa Cristoforo Colombo Airport (LIMJ) |
Arrival
| Time | 2026-05-07 09:52 |
|---|---|
| Airport | Munich Airport (EDDM) |
| Time | Latitude | Longitude | Altitude | Speed | Heading |
|---|---|---|---|---|---|
| 2026-05-07 08:05 | 44.41391 | 8.85097 | 24 ft | 0 kts | 15° |
| 2026-05-07 08:42 | 44.41390 | 8.85096 | 22 ft | 2 kts | 15° |
| 2026-05-07 08:42 | 44.41368 | 8.85086 | 26 ft | 4 kts | 25° |
| 2026-05-07 08:42 | 44.41348 | 8.85069 | 22 ft | 4 kts | 47° |
| 2026-05-07 08:42 | 44.41338 | 8.85043 | 22 ft | 4 kts | 92° |
| 2026-05-07 08:43 | 44.41339 | 8.85033 | 22 ft | 1 kts | 105° |
| 2026-05-07 08:46 | 44.41336 | 8.85045 | 22 ft | 3 kts | 105° |
| 2026-05-07 08:46 | 44.41326 | 8.85098 | 25 ft | 9 kts | 105° |
| 2026-05-07 08:46 | 44.41305 | 8.85204 | 25 ft | 11 kts | 107° |
| 2026-05-07 08:47 | 44.41267 | 8.85270 | 25 ft | 1 kts | 146° |
| 2026-05-07 08:47 | 44.41265 | 8.85272 | 22 ft | 2 kts | 146° |
| 2026-05-07 08:47 | 44.41246 | 8.85282 | 22 ft | 4 kts | 168° |
| 2026-05-07 08:47 | 44.41208 | 8.85274 | 24 ft | 7 kts | 195° |
| 2026-05-07 08:48 | 44.41150 | 8.85251 | 26 ft | 10 kts | 195° |
| 2026-05-07 08:48 | 44.41077 | 8.85221 | 21 ft | 11 kts | 206° |
| 2026-05-07 08:48 | 44.41030 | 8.85139 | 19 ft | 11 kts | 248° |
| 2026-05-07 08:48 | 44.41031 | 8.85024 | 21 ft | 13 kts | 284° |
| 2026-05-07 08:49 | 44.41062 | 8.84874 | 21 ft | 20 kts | 286° |
| 2026-05-07 08:49 | 44.41103 | 8.84649 | 24 ft | 27 kts | 284° |
| 2026-05-07 08:49 | 44.41164 | 8.84356 | 24 ft | 35 kts | 285° |
| 2026-05-07 08:49 | 44.41234 | 8.83990 | 24 ft | 43 kts | 285° |
| 2026-05-07 08:50 | 44.41318 | 8.83555 | 24 ft | 48 kts | 285° |
| 2026-05-07 08:50 | 44.41406 | 8.83099 | 24 ft | 47 kts | 285° |
| 2026-05-07 08:50 | 44.41479 | 8.82732 | 22 ft | 28 kts | 287° |
| 2026-05-07 08:50 | 44.41526 | 8.82546 | 20 ft | 9 kts | 302° |
| 2026-05-07 08:51 | 44.41551 | 8.82490 | 19 ft | 8 kts | 299° |
| 2026-05-07 08:51 | 44.41539 | 8.82450 | 21 ft | 3 kts | 182° |
| 2026-05-07 08:51 | 44.41529 | 8.82476 | 19 ft | 5 kts | 107° |
| 2026-05-07 08:51 | 44.41501 | 8.82624 | 24 ft | 42 kts | 105° |
| 2026-05-07 08:52 | 44.41353 | 8.83369 | 25 ft | 114 kts | 105° |
| 2026-05-07 08:52 | 44.41065 | 8.84694 | 60 ft | 165 kts | 108° |
| 2026-05-07 08:52 | 44.40751 | 8.86318 | 628 ft | 181 kts | 105° |
| 2026-05-07 08:52 | 44.40435 | 8.88004 | 1598 ft | 169 kts | 113° |
| 2026-05-07 08:53 | 44.39811 | 8.89460 | 2106 ft | 188 kts | 137° |
| 2026-05-07 08:53 | 44.38683 | 8.90338 | 2921 ft | 181 kts | 167° |
| 2026-05-07 08:53 | 44.37406 | 8.90690 | 3574 ft | 194 kts | 168° |
| 2026-05-07 08:53 | 44.36083 | 8.91113 | 4363 ft | 194 kts | 168° |
| 2026-05-07 08:54 | 44.34754 | 8.91538 | 5138 ft | 198 kts | 169° |
| 2026-05-07 08:54 | 44.33405 | 8.91964 | 5908 ft | 201 kts | 169° |
| 2026-05-07 08:54 | 44.32037 | 8.92397 | 6689 ft | 202 kts | 170° |
| 2026-05-07 08:54 | 44.30664 | 8.92832 | 7421 ft | 205 kts | 170° |
| 2026-05-07 08:55 | 44.29281 | 8.93269 | 8177 ft | 205 kts | 172° |
| 2026-05-07 08:55 | 44.27851 | 8.93339 | 8860 ft | 206 kts | 191° |
| 2026-05-07 08:55 | 44.26511 | 8.92712 | 9578 ft | 205 kts | 212° |
| 2026-05-07 08:55 | 44.25328 | 8.91588 | 10252 ft | 208 kts | 216° |
| 2026-05-07 08:56 | 44.24153 | 8.90464 | 10961 ft | 208 kts | 216° |
| 2026-05-07 08:56 | 44.22931 | 8.89300 | 11690 ft | 211 kts | 217° |
| 2026-05-07 08:56 | 44.21730 | 8.88161 | 12424 ft | 213 kts | 217° |
| 2026-05-07 08:56 | 44.20503 | 8.86999 | 13182 ft | 214 kts | 217° |
| 2026-05-07 08:57 | 44.19266 | 8.85830 | 13931 ft | 216 kts | 217° |
| 2026-05-07 08:57 | 44.18021 | 8.84653 | 14690 ft | 217 kts | 217° |
| 2026-05-07 08:57 | 44.16767 | 8.83470 | 15438 ft | 218 kts | 217° |
| 2026-05-07 08:57 | 44.15505 | 8.82278 | 16160 ft | 220 kts | 217° |
| 2026-05-07 08:58 | 44.14322 | 8.80898 | 16680 ft | 229 kts | 234° |
| 2026-05-07 08:58 | 44.13693 | 8.78787 | 16994 ft | 249 kts | 260° |
| 2026-05-07 08:58 | 44.13687 | 8.76286 | 17388 ft | 266 kts | 269° |
| 2026-05-07 08:58 | 44.13749 | 8.73654 | 17864 ft | 278 kts | 270° |
| 2026-05-07 08:59 | 44.14174 | 8.71017 | 18596 ft | 284 kts | 291° |
| 2026-05-07 08:59 | 44.15354 | 8.68760 | 19220 ft | 299 kts | 313° |
| 2026-05-07 08:59 | 44.17180 | 8.67264 | 19881 ft | 313 kts | 336° |
| 2026-05-07 08:59 | 44.19376 | 8.66817 | 20435 ft | 329 kts | 358° |
| 2026-05-07 09:00 | 44.21685 | 8.67251 | 20867 ft | 346 kts | 13° |
| 2026-05-07 09:00 | 44.23927 | 8.68722 | 21029 ft | 370 kts | 34° |
| 2026-05-07 09:00 | 44.25809 | 8.71294 | 21151 ft | 390 kts | 55° |
| 2026-05-07 09:00 | 44.27281 | 8.74557 | 21353 ft | 405 kts | 58° |
| 2026-05-07 09:01 | 44.28809 | 8.77915 | 21770 ft | 412 kts | 58° |
| 2026-05-07 09:01 | 44.30347 | 8.81311 | 22353 ft | 416 kts | 58° |
| 2026-05-07 09:01 | 44.31899 | 8.84746 | 22842 ft | 421 kts | 58° |
| 2026-05-07 09:01 | 44.33465 | 8.88221 | 23353 ft | 425 kts | 58° |
| 2026-05-07 09:02 | 44.35047 | 8.91736 | 23862 ft | 429 kts | 59° |
| 2026-05-07 09:02 | 44.36640 | 8.95277 | 24335 ft | 434 kts | 59° |
| 2026-05-07 09:02 | 44.38251 | 8.98865 | 24842 ft | 437 kts | 59° |
| 2026-05-07 09:02 | 44.39871 | 9.02476 | 25327 ft | 441 kts | 59° |
| 2026-05-07 09:03 | 44.41554 | 9.06080 | 25811 ft | 445 kts | 52° |
| 2026-05-07 09:03 | 44.43773 | 9.09085 | 26277 ft | 445 kts | 33° |
| 2026-05-07 09:03 | 44.46402 | 9.11404 | 26704 ft | 448 kts | 29° |
| 2026-05-07 09:03 | 44.49040 | 9.13660 | 27103 ft | 452 kts | 29° |
| 2026-05-07 09:04 | 44.51776 | 9.15970 | 27562 ft | 455 kts | 28° |
| 2026-05-07 09:04 | 44.54468 | 9.18224 | 27960 ft | 459 kts | 28° |
| 2026-05-07 09:04 | 44.57219 | 9.20522 | 28356 ft | 462 kts | 28° |
| 2026-05-07 09:04 | 44.59985 | 9.22835 | 28754 ft | 465 kts | 28° |
| 2026-05-07 09:05 | 44.62774 | 9.25160 | 29161 ft | 467 kts | 28° |
| 2026-05-07 09:05 | 44.65584 | 9.27489 | 29528 ft | 471 kts | 28° |
| 2026-05-07 09:05 | 44.68415 | 9.29840 | 29901 ft | 474 kts | 28° |
| 2026-05-07 09:05 | 44.71252 | 9.32200 | 30249 ft | 476 kts | 28° |
| 2026-05-07 09:06 | 44.74118 | 9.34585 | 30588 ft | 480 kts | 28° |
| 2026-05-07 09:06 | 44.76060 | 9.36205 | 30810 ft | 482 kts | 28° |
| 2026-05-07 09:06 | 44.78946 | 9.38613 | 31133 ft | 484 kts | 28° |
| 2026-05-07 09:06 | 44.81847 | 9.41035 | 31503 ft | 485 kts | 28° |
| 2026-05-07 09:07 | 44.84759 | 9.43471 | 31851 ft | 487 kts | 28° |
| 2026-05-07 09:07 | 44.87681 | 9.45917 | 32155 ft | 490 kts | 28° |
| 2026-05-07 09:07 | 44.90625 | 9.48386 | 32452 ft | 493 kts | 28° |
| 2026-05-07 09:07 | 44.93572 | 9.50859 | 32792 ft | 494 kts | 28° |
| 2026-05-07 09:08 | 44.96529 | 9.53344 | 33177 ft | 494 kts | 29° |
| 2026-05-07 09:08 | 44.99480 | 9.55827 | 33577 ft | 494 kts | 29° |
| 2026-05-07 09:08 | 45.02433 | 9.58313 | 33922 ft | 495 kts | 29° |
| 2026-05-07 09:08 | 45.05350 | 9.60774 | 33992 ft | 494 kts | 29° |
| 2026-05-07 09:09 | 45.11222 | 9.65735 | 33981 ft | 491 kts | 29° |
| 2026-05-07 09:09 | 45.17126 | 9.70735 | 33978 ft | 491 kts | 29° |
| 2026-05-07 09:10 | 45.22951 | 9.75681 | 33978 ft | 491 kts | 29° |
| 2026-05-07 09:10 | 45.28820 | 9.80676 | 33980 ft | 492 kts | 29° |
| 2026-05-07 09:11 | 45.34689 | 9.85683 | 33980 ft | 492 kts | 30° |
| 2026-05-07 09:11 | 45.40557 | 9.90702 | 33989 ft | 492 kts | 30° |
| 2026-05-07 09:12 | 45.46419 | 9.95728 | 33990 ft | 492 kts | 30° |
| 2026-05-07 09:12 | 45.52272 | 10.00757 | 33992 ft | 489 kts | 29° |
| 2026-05-07 09:13 | 45.58088 | 10.05767 | 33990 ft | 489 kts | 29° |
| 2026-05-07 09:13 | 45.63847 | 10.10949 | 33975 ft | 490 kts | 39° |
| 2026-05-07 09:14 | 45.66182 | 10.14461 | 33988 ft | 488 kts | 54° |
| 2026-05-07 09:14 | 45.68199 | 10.18382 | 33988 ft | 491 kts | 54° |
| 2026-05-07 09:14 | 45.72217 | 10.26280 | 33992 ft | 490 kts | 55° |
| 2026-05-07 09:15 | 45.76177 | 10.34214 | 34000 ft | 490 kts | 55° |
| 2026-05-07 09:15 | 45.80129 | 10.42170 | 33987 ft | 489 kts | 55° |
| 2026-05-07 09:16 | 45.84071 | 10.50137 | 34004 ft | 491 kts | 56° |
| 2026-05-07 09:16 | 45.88017 | 10.58133 | 34003 ft | 491 kts | 56° |
| 2026-05-07 09:17 | 45.91998 | 10.66117 | 33998 ft | 492 kts | 50° |
| 2026-05-07 09:17 | 45.94487 | 10.69463 | 33986 ft | 489 kts | 33° |
| 2026-05-07 09:17 | 45.97413 | 10.71943 | 34012 ft | 490 kts | 27° |
| 2026-05-07 09:18 | 46.03397 | 10.76677 | 34024 ft | 491 kts | 26° |
| 2026-05-07 09:18 | 46.09398 | 10.81321 | 34015 ft | 489 kts | 26° |
| 2026-05-07 09:19 | 46.15397 | 10.85952 | 34015 ft | 489 kts | 26° |
| 2026-05-07 09:19 | 46.21400 | 10.90597 | 34027 ft | 490 kts | 26° |
| 2026-05-07 09:20 | 46.27411 | 10.95260 | 34010 ft | 490 kts | 27° |
| 2026-05-07 09:20 | 46.33413 | 10.99926 | 34016 ft | 491 kts | 27° |
| 2026-05-07 09:21 | 46.39463 | 11.04532 | 34003 ft | 490 kts | 21° |
| 2026-05-07 09:21 | 46.42703 | 11.05873 | 33995 ft | 481 kts | 3° |
| 2026-05-07 09:21 | 46.46017 | 11.05999 | 34017 ft | 476 kts | 353° |
| 2026-05-07 09:22 | 46.52659 | 11.05651 | 33989 ft | 477 kts | 353° |
| 2026-05-07 09:22 | 46.59285 | 11.05204 | 34014 ft | 477 kts | 352° |
| 2026-05-07 09:23 | 46.65917 | 11.04724 | 33995 ft | 476 kts | 352° |
| 2026-05-07 09:23 | 46.72537 | 11.04242 | 33892 ft | 473 kts | 353° |
| 2026-05-07 09:24 | 46.75805 | 11.04004 | 33272 ft | 471 kts | 353° |
| 2026-05-07 09:24 | 46.79082 | 11.03739 | 32530 ft | 471 kts | 349° |
| 2026-05-07 09:24 | 46.82314 | 11.03123 | 31917 ft | 468 kts | 347° |
| 2026-05-07 09:24 | 46.85533 | 11.02509 | 31413 ft | 465 kts | 348° |
| 2026-05-07 09:25 | 46.88727 | 11.01926 | 30967 ft | 460 kts | 348° |
| 2026-05-07 09:25 | 46.91887 | 11.01360 | 30478 ft | 456 kts | 348° |
| 2026-05-07 09:25 | 46.95038 | 11.00966 | 29941 ft | 457 kts | 358° |
| 2026-05-07 09:25 | 46.98206 | 11.01442 | 29450 ft | 456 kts | 3° |
| 2026-05-07 09:26 | 47.01349 | 11.01915 | 28986 ft | 453 kts | 2° |
| 2026-05-07 09:26 | 47.04476 | 11.02379 | 28491 ft | 451 kts | 2° |
| 2026-05-07 09:26 | 47.07552 | 11.02844 | 27981 ft | 448 kts | 2° |
| 2026-05-07 09:26 | 47.10680 | 11.03318 | 27552 ft | 444 kts | 2° |
| 2026-05-07 09:27 | 47.13694 | 11.03775 | 27068 ft | 441 kts | 2° |
| 2026-05-07 09:27 | 47.16745 | 11.04239 | 26622 ft | 438 kts | 2° |
| 2026-05-07 09:27 | 47.22764 | 11.05157 | 25692 ft | 431 kts | 2° |
| 2026-05-07 09:28 | 47.25774 | 11.05616 | 25240 ft | 427 kts | 2° |
| 2026-05-07 09:28 | 47.28716 | 11.06064 | 24777 ft | 423 kts | 2° |
| 2026-05-07 09:28 | 47.31586 | 11.06504 | 24383 ft | 419 kts | 2° |
| 2026-05-07 09:28 | 47.34476 | 11.06946 | 23943 ft | 416 kts | 2° |
| 2026-05-07 09:29 | 47.37347 | 11.07387 | 23421 ft | 414 kts | 2° |
| 2026-05-07 09:29 | 47.40204 | 11.07826 | 23039 ft | 410 kts | 3° |
| 2026-05-07 09:29 | 47.43029 | 11.08260 | 22618 ft | 407 kts | 3° |
| 2026-05-07 09:29 | 47.45833 | 11.08692 | 22198 ft | 403 kts | 2° |
| 2026-05-07 09:30 | 47.48610 | 11.09122 | 21789 ft | 399 kts | 3° |
| 2026-05-07 09:30 | 47.51356 | 11.09545 | 21397 ft | 395 kts | 3° |
| 2026-05-07 09:30 | 47.54077 | 11.09965 | 20990 ft | 392 kts | 3° |
| 2026-05-07 09:30 | 47.56747 | 11.10718 | 20535 ft | 393 kts | 18° |
| 2026-05-07 09:31 | 47.59172 | 11.12589 | 20151 ft | 392 kts | 30° |
| 2026-05-07 09:31 | 47.61517 | 11.14605 | 19773 ft | 388 kts | 28° |
| 2026-05-07 09:31 | 47.63839 | 11.16600 | 19377 ft | 385 kts | 29° |
| 2026-05-07 09:31 | 47.66146 | 11.18595 | 18990 ft | 382 kts | 29° |
| 2026-05-07 09:32 | 47.68430 | 11.20575 | 18603 ft | 379 kts | 29° |
| 2026-05-07 09:32 | 47.70700 | 11.22547 | 18219 ft | 377 kts | 29° |
| 2026-05-07 09:32 | 47.72955 | 11.24506 | 17828 ft | 374 kts | 28° |
| 2026-05-07 09:32 | 47.75312 | 11.26068 | 17408 ft | 370 kts | 18° |
| 2026-05-07 09:33 | 47.77715 | 11.27366 | 17045 ft | 366 kts | 18° |
| 2026-05-07 09:33 | 47.80097 | 11.28678 | 16672 ft | 363 kts | 18° |
| 2026-05-07 09:33 | 47.82456 | 11.29986 | 16300 ft | 360 kts | 18° |
| 2026-05-07 09:33 | 47.84796 | 11.31288 | 15917 ft | 358 kts | 19° |
| 2026-05-07 09:34 | 47.87118 | 11.32581 | 15552 ft | 355 kts | 18° |
| 2026-05-07 09:34 | 47.89482 | 11.33520 | 15104 ft | 350 kts | 2° |
| 2026-05-07 09:34 | 47.91893 | 11.33706 | 14782 ft | 345 kts | 0° |
| 2026-05-07 09:34 | 47.94278 | 11.33917 | 14411 ft | 342 kts | 0° |
| 2026-05-07 09:35 | 47.96652 | 11.34123 | 14044 ft | 340 kts | 0° |
| 2026-05-07 09:35 | 47.98999 | 11.34327 | 13687 ft | 337 kts | 0° |
| 2026-05-07 09:35 | 48.01317 | 11.34721 | 13445 ft | 333 kts | 12° |
| 2026-05-07 09:35 | 48.03499 | 11.35724 | 13394 ft | 321 kts | 15° |
| 2026-05-07 09:36 | 48.05589 | 11.36694 | 13353 ft | 308 kts | 14° |
| 2026-05-07 09:36 | 48.07604 | 11.37611 | 13313 ft | 297 kts | 14° |
| 2026-05-07 09:36 | 48.09597 | 11.38505 | 13278 ft | 305 kts | 14° |
| 2026-05-07 09:36 | 48.11659 | 11.39425 | 13244 ft | 312 kts | 14° |
| 2026-05-07 09:37 | 48.13756 | 11.40358 | 13214 ft | 316 kts | 14° |
| 2026-05-07 09:37 | 48.15865 | 11.41296 | 13167 ft | 317 kts | 14° |
| 2026-05-07 09:37 | 48.17981 | 11.42238 | 13126 ft | 317 kts | 14° |
| 2026-05-07 09:37 | 48.20090 | 11.43177 | 13083 ft | 316 kts | 14° |
| 2026-05-07 09:38 | 48.22202 | 11.44118 | 13039 ft | 316 kts | 14° |
| 2026-05-07 09:38 | 48.24309 | 11.45058 | 12998 ft | 316 kts | 14° |
| 2026-05-07 09:38 | 48.26414 | 11.45997 | 12959 ft | 315 kts | 14° |
| 2026-05-07 09:38 | 48.28488 | 11.46924 | 12908 ft | 314 kts | 14° |
| 2026-05-07 09:39 | 48.30581 | 11.47859 | 12486 ft | 317 kts | 14° |
| 2026-05-07 09:39 | 48.32728 | 11.48819 | 11786 ft | 327 kts | 14° |
| 2026-05-07 09:39 | 48.34946 | 11.49812 | 11004 ft | 339 kts | 14° |
| 2026-05-07 09:39 | 48.37246 | 11.50843 | 10171 ft | 351 kts | 14° |
| 2026-05-07 09:40 | 48.39608 | 11.51903 | 9508 ft | 356 kts | 15° |
| 2026-05-07 09:40 | 48.41975 | 11.52967 | 9061 ft | 353 kts | 15° |
| 2026-05-07 09:40 | 48.44318 | 11.54020 | 8621 ft | 350 kts | 15° |
| 2026-05-07 09:40 | 48.46650 | 11.55067 | 8180 ft | 347 kts | 15° |
| 2026-05-07 09:41 | 48.48954 | 11.56107 | 7727 ft | 345 kts | 15° |
| 2026-05-07 09:41 | 48.51241 | 11.57138 | 7287 ft | 341 kts | 14° |
| 2026-05-07 09:41 | 48.53419 | 11.58509 | 6823 ft | 342 kts | 33° |
| 2026-05-07 09:41 | 48.55000 | 11.61157 | 6372 ft | 344 kts | 62° |
| 2026-05-07 09:42 | 48.55607 | 11.64613 | 5906 ft | 342 kts | 89° |
| 2026-05-07 09:42 | 48.55201 | 11.68109 | 5412 ft | 339 kts | 111° |
| 2026-05-07 09:42 | 48.54386 | 11.71425 | 5156 ft | 335 kts | 111° |
| 2026-05-07 09:42 | 48.53600 | 11.74753 | 5042 ft | 337 kts | 111° |
| 2026-05-07 09:43 | 48.52819 | 11.78094 | 5011 ft | 338 kts | 110° |
| 2026-05-07 09:43 | 48.52043 | 11.81443 | 5011 ft | 338 kts | 110° |
| 2026-05-07 09:43 | 48.51265 | 11.84801 | 5008 ft | 338 kts | 110° |
| 2026-05-07 09:43 | 48.50490 | 11.88151 | 5014 ft | 338 kts | 110° |
| 2026-05-07 09:44 | 48.49712 | 11.91506 | 5012 ft | 339 kts | 110° |
| 2026-05-07 09:44 | 48.48935 | 11.94853 | 5012 ft | 339 kts | 110° |
| 2026-05-07 09:44 | 48.48155 | 11.98207 | 5019 ft | 338 kts | 110° |
| 2026-05-07 09:44 | 48.47374 | 12.01557 | 5019 ft | 339 kts | 110° |
| 2026-05-07 09:45 | 48.46595 | 12.04901 | 5017 ft | 339 kts | 110° |
| 2026-05-07 09:45 | 48.45814 | 12.08243 | 5014 ft | 331 kts | 110° |
| 2026-05-07 09:45 | 48.45084 | 12.11367 | 5026 ft | 303 kts | 111° |
| 2026-05-07 09:45 | 48.44399 | 12.14234 | 5034 ft | 278 kts | 115° |
| 2026-05-07 09:46 | 48.43353 | 12.16487 | 4997 ft | 251 kts | 144° |
| 2026-05-07 09:46 | 48.41889 | 12.17534 | 5069 ft | 222 kts | 176° |
| 2026-05-07 09:46 | 48.40466 | 12.17276 | 5009 ft | 197 kts | 211° |
| 2026-05-07 09:46 | 48.39526 | 12.15970 | 4977 ft | 179 kts | 240° |
| 2026-05-07 09:47 | 48.38867 | 12.14358 | 5050 ft | 181 kts | 248° |
| 2026-05-07 09:47 | 48.38697 | 12.12522 | 4990 ft | 178 kts | 276° |
| 2026-05-07 09:47 | 48.38799 | 12.10666 | 5050 ft | 187 kts | 270° |
| 2026-05-07 09:47 | 48.38720 | 12.08652 | 4835 ft | 196 kts | 264° |
| 2026-05-07 09:48 | 48.38563 | 12.06604 | 4631 ft | 197 kts | 263° |
| 2026-05-07 09:48 | 48.38405 | 12.04554 | 4354 ft | 192 kts | 263° |
| 2026-05-07 09:48 | 48.38257 | 12.02608 | 4116 ft | 187 kts | 263° |
| 2026-05-07 09:48 | 48.38109 | 12.00684 | 3876 ft | 182 kts | 263° |
| 2026-05-07 09:49 | 48.37966 | 11.98814 | 3634 ft | 177 kts | 263° |
| 2026-05-07 09:49 | 48.37826 | 11.96995 | 3407 ft | 173 kts | 264° |
| 2026-05-07 09:49 | 48.37703 | 11.95232 | 3211 ft | 167 kts | 264° |
| 2026-05-07 09:49 | 48.37584 | 11.93551 | 2968 ft | 151 kts | 263° |
| 2026-05-07 09:50 | 48.37468 | 11.92092 | 2742 ft | 137 kts | 263° |
| 2026-05-07 09:50 | 48.37338 | 11.90657 | 2527 ft | 137 kts | 263° |
| 2026-05-07 09:50 | 48.37216 | 11.89186 | 2405 ft | 144 kts | 264° |
| 2026-05-07 09:50 | 48.37119 | 11.87689 | 2158 ft | 144 kts | 265° |
| 2026-05-07 09:51 | 48.37016 | 11.86206 | 1988 ft | 142 kts | 264° |
| 2026-05-07 09:51 | 48.36925 | 11.85204 | 1918 ft | 144 kts | 263° |
| 2026-05-07 09:51 | 48.36805 | 11.83718 | 1741 ft | 141 kts | 264° |
| 2026-05-07 09:51 | 48.36699 | 11.82290 | 1570 ft | 134 kts | 264° |
| 2026-05-07 09:52 | 48.36602 | 11.80977 | 1488 ft | 113 kts | 264° |
| 2026-05-07 09:52 | 48.36536 | 11.80126 | 1488 ft | 49 kts | 263° |
| 2026-05-07 09:52 | 48.36490 | 11.79810 | 1484 ft | 25 kts | 247° |
| 2026-05-07 09:52 | 48.36402 | 11.79604 | 1480 ft | 13 kts | 233° |
| 2026-05-07 09:53 | 48.36351 | 11.79502 | 1481 ft | 13 kts | 233° |
| 2026-05-07 09:53 | 48.36290 | 11.79379 | 1488 ft | 16 kts | 233° |
| 2026-05-07 09:53 | 48.36193 | 11.79305 | 1488 ft | 17 kts | 187° |
| 2026-05-07 09:53 | 48.36065 | 11.79319 | 1488 ft | 20 kts | 174° |
| 2026-05-07 09:54 | 48.35946 | 11.79341 | 1477 ft | 11 kts | 168° |
| 2026-05-07 09:54 | 48.35898 | 11.79407 | 1477 ft | 9 kts | 115° |
| 2026-05-07 09:54 | 48.35834 | 11.79455 | 1476 ft | 14 kts | 175° |
| 2026-05-07 09:54 | 48.35771 | 11.79516 | 1488 ft | 8 kts | 95° |
| 2026-05-07 09:55 | 48.35780 | 11.79603 | 1488 ft | 11 kts | 81° |
| 2026-05-07 09:55 | 48.35793 | 11.79767 | 1482 ft | 20 kts | 83° |
| 2026-05-07 09:55 | 48.35808 | 11.79974 | 1488 ft | 12 kts | 83° |
| 2026-05-07 09:55 | 48.35788 | 11.80064 | 1485 ft | 7 kts | 147° |
| 2026-05-07 09:56 | 48.35754 | 11.80073 | 1480 ft | 6 kts | 172° |
| 2026-05-07 09:56 | 48.35704 | 11.80083 | 1482 ft | 8 kts | 170° |
| 2026-05-07 09:56 | 48.35649 | 11.80097 | 1482 ft | 8 kts | 173° |
| 2026-05-07 09:56 | 48.35606 | 11.80098 | 1481 ft | 2 kts | 208° |
| 2026-05-07 09:57 | 48.35595 | 11.80072 | 1488 ft | 6 kts | 248° |
| 2026-05-07 09:57 | 48.35588 | 11.80010 | 1481 ft | 2 kts | 264° |
| 2026-05-07 09:57 | 48.35587 | 11.79992 | 1477 ft | 1 kts | 264° |